Time;durP1;ratioP1;P1;durP2;ratioP2;P2;SDS_P1;SDS_P2;PMS_P1;PMS_P2;Temp;Humidity;BMP_temperature;BMP_pressure;BME280_temperature;BME280_humidity;BME280_pressure;Samples;Min_cycle;Max_cycle;Signal;HPM_P1;HPM_P2
2022/07/26 00:03:44;;;;;;;7.53;1.77;;;;;;;24.29;46.58;99892.78;10470524;28;20127;-67
2022/07/26 00:08:46;;;;;;;5.00;1.40;;;;;;;24.14;46.16;99884.97;10460296;28;20055;-67
2022/07/26 00:13:48;;;;;;;5.10;1.63;;;;;;;24.10;46.54;99883.72;10472277;28;20206;-67
2022/07/26 00:18:49;;;;;;;2.15;1.08;;;;;;;24.05;46.71;99896.31;10472366;28;20063;-70
2022/07/26 00:23:51;;;;;;;4.18;1.60;;;;;;;24.00;46.66;99903.28;10453589;28;20078;-69
2022/07/26 00:28:52;;;;;;;4.75;1.75;;;;;;;23.92;46.74;99903.53;10469822;28;20123;-69
2022/07/26 00:33:54;;;;;;;3.97;1.55;;;;;;;23.87;46.32;99903.34;10460857;28;20507;-68
2022/07/26 00:38:55;;;;;;;3.75;1.17;;;;;;;23.88;46.32;99913.16;10463745;28;20052;-69
2022/07/26 00:43:58;;;;;;;4.10;1.52;;;;;;;23.88;46.21;99928.63;10473637;28;20044;-68
2022/07/26 00:48:59;;;;;;;;;;;;;;;23.85;46.25;99929.91;10474851;28;20131;-68
2022/07/26 00:54:03;;;;;;;5.60;1.65;;;;;;;23.89;46.91;99936.56;10470872;28;19971;-69
2022/07/26 00:59:05;;;;;;;2.88;1.10;;;;;;;23.88;46.40;99939.50;10465645;28;20534;-69
2022/07/26 01:04:07;;;;;;;4.07;1.35;;;;;;;23.88;46.33;99945.78;10505295;28;20050;-69
2022/07/26 01:09:10;;;;;;;4.83;1.63;;;;;;;23.95;46.79;99943.03;10469536;28;20144;-69
2022/07/26 01:14:12;;;;;;;5.53;1.33;;;;;;;23.96;46.76;99942.81;10466145;28;20531;-68
2022/07/26 01:19:13;;;;;;;2.55;1.42;;;;;;;23.98;46.35;99939.88;10469419;28;20232;-67
2022/07/26 01:24:15;;;;;;;2.78;1.52;;;;;;;23.98;46.64;99939.88;10467076;28;20173;-67
2022/07/26 01:29:16;;;;;;;4.43;1.45;;;;;;;23.80;46.20;99932.44;10469610;28;20137;-71
2022/07/26 01:34:18;;;;;;;4.95;1.70;;;;;;;23.75;46.71;99935.81;10474702;28;20135;-68
2022/07/26 01:39:20;;;;;;;4.13;1.65;;;;;;;23.78;46.13;99942.66;10464978;28;20057;-71
2022/07/26 01:44:22;;;;;;;3.00;1.83;;;;;;;23.72;46.30;99938.09;10473514;28;20144;-66
2022/07/26 01:49:24;;;;;;;6.80;2.50;;;;;;;23.67;46.55;99943.38;10464203;28;20072;-69
2022/07/26 01:54:25;;;;;;;3.03;1.58;;;;;;;23.67;46.61;99948.81;10455184;28;20143;-68
2022/07/26 01:59:26;;;;;;;4.43;1.67;;;;;;;23.67;46.67;99960.50;10455117;28;20163;-69
2022/07/26 02:09:48;;;;;;;3.78;1.52;;;;;;;23.62;46.07;99952.16;10479580;28;20550;-69
2022/07/26 02:14:49;;;;;;;4.05;1.48;;;;;;;23.54;46.15;99950.53;10467914;28;20052;-68
2022/07/26 02:19:51;;;;;;;3.53;0.90;;;;;;;23.55;45.70;99952.19;10477032;28;20048;-68
2022/07/26 02:24:52;;;;;;;3.58;0.98;;;;;;;23.32;46.47;99951.88;10472672;28;20048;-67
2022/07/26 02:29:53;;;;;;;6.78;1.42;;;;;;;23.26;46.46;99937.28;10474826;28;20821;-67
2022/07/26 02:34:55;;;;;;;2.17;0.88;;;;;;;23.23;46.80;99943.97;10458510;28;20044;-67
2022/07/26 02:39:56;;;;;;;4.47;0.80;;;;;;;23.17;46.33;99950.25;10455321;28;20758;-69
2022/07/26 02:44:58;;;;;;;5.18;1.60;;;;;;;23.23;46.66;99943.97;10475766;28;20131;-67
2022/07/26 02:49:59;;;;;;;2.65;0.80;;;;;;;23.25;46.64;99947.28;10475091;28;20970;-70
2022/07/26 02:55:01;;;;;;;6.00;1.05;;;;;;;23.36;46.19;99942.25;10474171;28;20223;-68
2022/07/26 03:00:03;;;;;;;4.93;1.20;;;;;;;23.32;46.35;99943.75;10456140;28;20040;-70
2022/07/26 03:05:05;;;;;;;3.10;1.10;;;;;;;23.27;46.56;99953.34;10472981;28;20049;-66
2022/07/26 03:10:07;;;;;;;4.57;1.50;;;;;;;23.32;46.74;99951.88;10473173;28;20278;-70
2022/07/26 03:15:10;;;;;;;4.13;1.00;;;;;;;23.27;47.06;99947.94;10462906;28;20071;-70
2022/07/26 03:20:11;;;;;;;1.00;0.60;;;;;;;23.28;47.07;99951.47;10473374;28;20417;-71
2022/07/26 03:25:13;;;;;;;2.35;0.90;;;;;;;23.17;46.29;99955.69;10472818;28;20055;-69
2022/07/26 03:30:14;;;;;;;2.85;0.88;;;;;;;23.10;46.78;99955.72;10472372;28;20527;-69
2022/07/26 03:35:16;;;;;;;2.67;0.98;;;;;;;23.10;46.49;99954.88;10462710;28;20060;-68
2022/07/26 03:40:18;;;;;;;3.50;1.00;;;;;;;23.11;46.73;99970.13;10472860;28;20143;-70
2022/07/26 03:45:20;;;;;;;3.57;0.83;;;;;;;23.08;46.36;99967.81;10471894;28;20549;-69
2022/07/26 03:50:22;;;;;;;2.55;0.70;;;;;;;23.01;46.89;99958.81;10450289;28;20286;-68
2022/07/26 04:00:48;;;;;;;4.60;1.15;;;;;;;22.83;46.74;99954.88;10426358;28;20050;-68
2022/07/26 04:05:49;;;;;;;4.82;1.45;;;;;;;22.74;47.59;99961.59;10473835;28;20639;-67
2022/07/26 04:10:53;;;;;;;3.40;0.80;;;;;;;22.84;46.91;99966.59;10471025;28;20759;-69
2022/07/26 04:15:54;;;;;;;5.07;1.63;;;;;;;22.65;47.69;99965.56;10455335;28;20056;-69
2022/07/26 04:20:56;;;;;;;2.92;0.77;;;;;;;22.79;47.77;99969.94;10461175;28;20048;-68
2022/07/26 04:25:57;;;;;;;4.05;0.98;;;;;;;22.79;47.62;99978.09;10512183;28;20058;-69
2022/07/26 04:30:59;;;;;;;4.05;0.98;;;;;;;22.69;47.98;99980.38;10474386;28;20150;-67
2022/07/26 04:36:01;;;;;;;2.60;0.70;;;;;;;22.71;48.65;99972.84;10473908;28;20047;-66
2022/07/26 04:41:02;;;;;;;4.22;0.82;;;;;;;22.67;47.88;99979.75;10470893;28;20052;-69
2022/07/26 04:46:19;;;;;;;2.30;0.63;;;;;;;22.18;48.09;99984.50;10415768;28;20064;-67
2022/07/26 04:51:20;;;;;;;4.93;1.15;;;;;;;22.27;48.66;99977.00;10458039;28;20063;-71
2022/07/26 04:56:22;;;;;;;3.03;1.02;;;;;;;22.36;49.33;99989.34;10448049;28;20674;-70
2022/07/26 05:01:23;;;;;;;5.45;0.95;;;;;;;22.34;48.91;99997.69;10456541;28;20525;-69
2022/07/26 05:06:24;;;;;;;3.00;0.90;;;;;;;22.39;48.55;99991.66;10455653;28;20462;-70
2022/07/26 05:11:26;;;;;;;3.42;0.70;;;;;;;22.57;48.76;99997.28;10450817;28;20433;-70
2022/07/26 05:16:27;;;;;;;5.05;1.08;;;;;;;22.56;48.31;99998.34;10445373;28;20059;-70
2022/07/26 05:21:29;;;;;;;3.47;1.67;;;;;;;22.56;49.01;99997.47;10439550;28;20568;-69
2022/07/26 05:26:31;;;;;;;3.58;0.85;;;;;;;22.54;49.33;99999.59;10453430;28;20400;-71
2022/07/26 05:31:32;;;;;;;3.50;0.88;;;;;;;22.60;47.97;100013.13;10445621;28;20082;-71
2022/07/26 05:36:34;;;;;;;4.78;1.38;;;;;;;22.62;49.45;100012.09;10455367;28;20197;-68
2022/07/26 05:41:35;;;;;;;3.13;0.73;;;;;;;;;;10454790;28;20067;-68
2022/07/26 05:46:37;;;;;;;3.38;0.80;;;;;;;22.67;48.70;100006.88;10452805;28;20315;-67
2022/07/26 05:51:38;;;;;;;2.53;1.15;;;;;;;22.64;48.33;100002.72;10455360;28;20558;-71
2022/07/26 05:56:39;;;;;;;3.67;0.90;;;;;;;22.13;50.11;100009.53;10440303;28;20048;-70
2022/07/26 06:01:41;;;;;;;3.53;0.80;;;;;;;22.23;49.10;100009.09;10448697;28;20060;-71
2022/07/26 06:06:42;;;;;;;3.60;0.80;;;;;;;22.23;50.43;100009.09;10452676;28;20048;-71
2022/07/26 06:11:44;;;;;;;3.33;1.30;;;;;;;22.36;49.90;100019.19;10391435;22;20055;-57
2022/07/26 06:16:46;;;;;;;3.25;1.00;;;;;;;22.49;49.73;100019.19;10372754;28;20052;-56
2022/07/26 06:21:47;;;;;;;3.33;1.35;;;;;;;22.80;49.09;100006.88;10383990;28;20049;-57
2022/07/26 06:26:51;;;;;;;2.95;0.90;;;;;;;22.93;47.92;100017.72;10390833;28;20045;-64
2022/07/26 06:31:57;;;;;;;3.55;0.70;;;;;;;22.80;48.30;100019.59;10394186;28;20052;-65
2022/07/26 06:36:58;;;;;;;2.90;0.80;;;;;;;22.71;48.58;100016.25;10388975;28;20321;-62
2022/07/26 06:42:00;;;;;;;3.47;0.77;;;;;;;22.67;49.00;100004.16;10388637;28;20048;-64
2022/07/26 06:47:01;;;;;;;3.25;0.85;;;;;;;22.86;48.96;100014.16;10383583;28;20072;-64
2022/07/26 06:52:03;;;;;;;3.20;1.23;;;;;;;22.88;47.95;100022.09;10393778;28;20836;-65
2022/07/26 06:57:04;;;;;;;1.90;0.57;;;;;;;22.95;47.28;100018.34;10396288;28;20218;-63
2022/07/26 07:02:06;;;;;;;2.75;0.80;;;;;;;23.01;46.91;100018.53;10387459;28;20687;-65
2022/07/26 07:07:07;;;;;;;2.83;0.77;;;;;;;23.08;47.70;100017.47;10384365;28;21394;-63
2022/07/26 07:12:09;;;;;;;2.17;0.93;;;;;;;23.37;46.88;100015.34;10392405;28;20049;-64
2022/07/26 07:17:11;;;;;;;2.08;0.82;;;;;;;23.50;46.65;100017.19;10387569;28;20128;-65
2022/07/26 07:22:20;;;;;;;3.95;0.80;;;;;;;23.61;45.92;100021.94;10393535;28;20049;-64
2022/07/26 07:27:21;;;;;;;3.03;1.00;;;;;;;23.85;45.23;100035.88;10388134;28;21050;-63
2022/07/26 07:32:23;;;;;;;2.83;0.90;;;;;;;23.44;46.02;100026.22;10387760;28;20197;-63
2022/07/26 07:37:25;;;;;;;3.92;0.85;;;;;;;23.74;45.75;100031.13;10409571;28;20611;-63
2022/07/26 07:42:26;;;;;;;3.15;0.60;;;;;;;23.81;45.38;100042.81;10411825;28;20044;-64
2022/07/26 07:47:28;;;;;;;5.22;1.30;;;;;;;23.58;45.61;100027.00;10435832;28;20228;-63
2022/07/26 07:52:29;;;;;;;3.38;1.05;;;;;;;24.12;45.33;100033.03;10420362;28;20056;-64
2022/07/26 07:57:31;;;;;;;2.92;1.38;;;;;;;24.31;44.16;100029.38;10425877;28;20048;-64
2022/07/26 08:02:32;;;;;;;2.45;0.70;;;;;;;24.23;45.29;100029.66;10415205;28;20613;-63
2022/07/26 08:07:34;;;;;;;3.20;0.90;;;;;;;24.62;43.97;100030.44;10399918;28;20766;-64
2022/07/26 08:12:36;;;;;;;4.03;1.30;;;;;;;24.86;42.70;100015.16;10398942;28;20129;-63
2022/07/26 08:17:38;;;;;;;2.67;0.88;;;;;;;24.59;43.70;100032.75;10403768;28;20053;-63
2022/07/26 08:22:42;;;;;;;2.47;0.85;;;;;;;23.92;44.38;100033.97;10405850;28;20060;-65
2022/07/26 08:27:43;;;;;;;2.78;0.55;;;;;;;24.49;43.89;100028.63;10407756;28;20151;-64
2022/07/26 08:33:03;;;;;;;3.13;0.93;;;;;;;24.89;41.69;100027.47;10414462;28;20044;-64
2022/07/26 08:38:04;;;;;;;2.20;0.70;;;;;;;24.67;42.07;100036.03;10402196;28;20064;-64
2022/07/26 08:43:07;;;;;;;1.25;0.80;;;;;;;24.52;42.89;100038.22;10407370;28;20867;-64
2022/07/26 08:48:09;;;;;;;2.28;0.80;;;;;;;24.98;42.26;100042.47;10405556;28;20121;-64
2022/07/26 08:53:19;;;;;;;6.05;0.70;;;;;;;25.40;40.94;100045.44;10400946;28;20059;-62
2022/07/26 08:58:21;;;;;;;3.58;0.68;;;;;;;25.48;40.77;100051.66;10405597;28;20143;-63
2022/07/26 09:03:24;;;;;;;1.27;0.70;;;;;;;25.60;40.79;100055.28;10396867;28;20738;-63
2022/07/26 09:08:28;;;;;;;3.22;0.65;;;;;;;25.71;40.79;100050.94;10397811;28;20170;-64
2022/07/26 09:13:52;;;;;;;3.72;0.40;;;;;;;25.41;40.87;100049.00;10403054;28;20072;-63
2022/07/26 09:18:55;;;;;;;1.10;0.47;;;;;;;26.15;38.50;100059.00;10374783;28;20601;-63
2022/07/26 09:23:57;;;;;;;;;;;;;;;26.16;38.46;100055.22;10388748;28;20106;-57
2022/07/26 09:29:08;;;;;;;4.50;0.70;;;;;;;26.07;39.88;100061.00;10375401;28;19978;-57
2022/07/26 09:34:10;;;;;;;0.70;0.20;;;;;;;25.95;39.99;100065.53;10377080;28;20041;-56
2022/07/26 09:39:12;;;;;;;2.03;0.30;;;;;;;26.02;39.41;100070.94;10375354;28;20049;-56
2022/07/26 09:44:22;;;;;;;1.70;0.50;;;;;;;26.24;39.08;100074.00;10379802;28;20945;-57
2022/07/26 09:49:25;;;;;;;2.15;0.30;;;;;;;26.05;38.73;100065.84;10376812;28;20280;-56
2022/07/26 09:54:44;;;;;;;2.25;0.40;;;;;;;26.17;38.70;100065.09;10378029;28;20056;-58
2022/07/26 09:59:46;;;;;;;3.97;1.48;;;;;;;26.25;38.50;100065.56;10381121;28;20048;-57
2022/07/26 10:04:48;;;;;;;1.83;0.40;;;;;;;26.15;37.91;100067.19;10382326;28;20092;-57
2022/07/26 10:10:00;;;;;;;1.73;0.60;;;;;;;26.66;37.84;100068.53;10382010;28;20773;-57
2022/07/26 10:15:02;;;;;;;2.47;0.50;;;;;;;26.40;38.15;100073.34;10384545;28;20711;-57
2022/07/26 10:20:06;;;;;;;1.13;0.43;;;;;;;26.43;37.02;100064.69;10388668;28;20049;-57
2022/07/26 10:25:18;;;;;;;2.17;0.55;;;;;;;26.29;38.19;100074.97;10386987;28;20056;-56
2022/07/26 10:30:23;;;;;;;2.85;0.57;;;;;;;25.83;39.62;100081.00;10388575;28;22179;-56
2022/07/26 10:35:43;;;;;;;2.70;0.60;;;;;;;25.58;40.50;100090.09;10393951;28;20577;-57
2022/07/26 10:40:55;;;;;;;;;;;;;;;26.07;39.57;100085.53;10386732;28;20048;-57
2022/07/26 10:46:15;;;;;;;1.48;0.30;;;;;;;26.62;36.03;100089.19;10389612;28;20005;-67
2022/07/26 10:51:30;;;;;;;0.70;0.47;;;;;;;27.34;35.24;100069.13;10384584;28;20051;-68
2022/07/26 10:56:31;;;;;;;0.82;0.35;;;;;;;28.74;34.06;100079.00;10389809;28;20241;-65
2022/07/26 11:01:36;;;;;;;0.70;0.20;;;;;;;29.62;32.38;100064.72;10385951;28;20072;-67
2022/07/26 11:06:38;;;;;;;1.45;0.30;;;;;;;29.89;31.61;100059.31;10388798;28;20576;-69
2022/07/26 11:11:40;;;;;;;1.10;0.30;;;;;;;28.36;33.15;100062.19;10385522;28;20117;-64
2022/07/26 11:16:49;;;;;;;1.50;0.38;;;;;;;28.30;34.44;100060.44;10386758;28;20071;-65
2022/07/26 11:21:58;;;;;;;1.80;0.40;;;;;;;29.33;31.92;100042.94;10390987;28;20059;-64
2022/07/26 11:27:03;;;;;;;1.05;0.50;;;;;;;29.97;31.21;100042.41;10392600;28;20049;-66
2022/07/26 11:32:14;;;;;;;0.93;0.32;;;;;;;30.26;30.71;100041.31;10394047;28;20265;-67
2022/07/26 11:37:18;;;;;;;1.40;0.50;;;;;;;29.66;30.52;100049.41;10395070;28;20060;-64
2022/07/26 11:42:20;;;;;;;1.63;0.38;;;;;;;29.27;30.88;100042.06;10399071;28;20064;-70
2022/07/26 11:47:22;;;;;;;0.82;0.45;;;;;;;28.76;31.43;100035.75;10386105;28;20083;-66
2022/07/26 11:52:30;;;;;;;2.38;0.47;;;;;;;28.59;31.89;100048.63;10380304;28;20048;-68
2022/07/26 11:57:32;;;;;;;0.55;0.30;;;;;;;27.70;33.81;100050.75;10400175;28;20154;-69
2022/07/26 12:02:33;;;;;;;1.47;0.50;;;;;;;27.39;35.43;100055.56;10386947;28;20055;-69
2022/07/26 12:07:35;;;;;;;1.67;0.80;;;;;;;27.24;36.29;100052.47;10384570;28;20105;-67
2022/07/26 12:12:38;;;;;;;2.33;0.57;;;;;;;27.27;34.54;100052.00;10382297;28;20757;-67
2022/07/26 12:17:56;;;;;;;1.27;0.50;;;;;;;27.65;35.02;100054.22;10383649;28;20052;-67
2022/07/26 12:23:03;;;;;;;4.43;0.60;;;;;;;28.47;33.81;100054.97;10383478;28;20041;-66
2022/07/26 12:28:06;;;;;;;0.98;0.65;;;;;;;29.38;32.58;100061.38;10382719;28;20059;-67
2022/07/26 12:33:07;;;;;;;1.30;0.38;;;;;;;29.94;31.45;100051.13;10379949;28;20281;-67
2022/07/26 12:38:09;;;;;;;3.53;0.47;;;;;;;29.86;30.78;100039.78;10382605;28;20059;-65
2022/07/26 12:43:11;;;;;;;2.00;0.47;;;;;;;29.94;31.46;100033.84;10381024;28;20128;-68
2022/07/26 12:48:12;;;;;;;1.40;0.47;;;;;;;29.57;31.15;100042.72;10383483;28;20060;-64
2022/07/26 12:53:14;;;;;;;1.00;0.20;;;;;;;29.68;30.53;100035.44;10380500;28;20045;-67
2022/07/26 12:58:15;;;;;;;1.75;0.43;;;;;;;29.74;30.66;100024.28;10376177;28;20168;-67
2022/07/26 13:03:17;;;;;;;1.17;0.40;;;;;;;30.12;30.49;100019.78;10372734;28;20055;-67
2022/07/26 13:08:18;;;;;;;3.33;0.50;;;;;;;29.68;31.12;100019.81;10374773;28;20110;-66
2022/07/26 13:13:19;;;;;;;1.23;0.38;;;;;;;29.87;30.90;100014.03;10378716;28;20291;-69
2022/07/26 13:18:21;;;;;;;4.47;1.10;;;;;;;30.50;29.71;100017.13;10382966;28;20044;-67
2022/07/26 13:23:22;;;;;;;1.73;0.43;;;;;;;30.06;30.13;100014.50;10380584;28;20188;-68
2022/07/26 13:28:27;;;;;;;2.55;0.73;;;;;;;29.52;30.78;100016.06;10383290;28;20720;-66
2022/07/26 13:33:28;;;;;;;1.40;0.60;;;;;;;29.46;31.57;100021.75;10387456;28;20138;-66
2022/07/26 13:38:32;;;;;;;1.83;0.60;;;;;;;29.19;31.28;100023.25;10390105;28;20779;-67
2022/07/26 13:43:34;;;;;;;2.58;0.57;;;;;;;29.46;30.63;100028.03;10399912;28;20132;-66
2022/07/26 13:48:35;;;;;;;3.60;0.65;;;;;;;29.22;30.86;100017.31;10380911;28;20049;-65
2022/07/26 13:53:37;;;;;;;1.10;0.43;;;;;;;29.38;30.13;100017.50;10388695;28;20049;-69
2022/07/26 13:58:55;;;;;;;1.95;0.63;;;;;;;29.24;31.00;100008.84;10397484;28;20579;-67
2022/07/26 14:03:57;;;;;;;2.57;0.50;;;;;;;28.74;31.07;100019.59;10382470;28;20739;-70
2022/07/26 14:08:59;;;;;;;1.53;0.97;;;;;;;28.67;31.23;100018.09;10382082;28;20195;-68
2022/07/26 14:14:01;;;;;;;1.85;0.75;;;;;;;28.89;31.05;100007.22;10387173;28;20288;-65
2022/07/26 14:19:02;;;;;;;2.08;0.60;;;;;;;29.21;30.55;100009.34;10384496;28;20653;-66
2022/07/26 14:24:04;;;;;;;2.72;0.57;;;;;;;29.39;29.89;100019.19;10390607;28;20214;-69
2022/07/26 14:29:06;;;;;;;1.75;0.57;;;;;;;29.30;30.65;100015.22;10386715;28;20060;-69
2022/07/26 14:34:07;;;;;;;1.92;0.73;;;;;;;29.27;30.81;100006.44;10387192;28;20052;-67
2022/07/26 14:39:09;;;;;;;1.50;0.75;;;;;;;29.53;29.89;100009.50;10381690;28;20059;-67
2022/07/26 14:44:10;;;;;;;5.13;1.07;;;;;;;29.40;30.81;100013.44;10390549;28;20057;-67
2022/07/26 14:49:13;;;;;;;0.70;0.60;;;;;;;29.49;29.48;100000.13;10388277;28;20127;-69
2022/07/26 14:54:15;;;;;;;3.53;0.90;;;;;;;29.55;30.55;99999.09;10388304;28;20124;-67
2022/07/26 14:59:16;;;;;;;1.70;0.80;;;;;;;29.08;31.46;99994.91;10384617;28;20750;-69
2022/07/26 15:04:18;;;;;;;2.73;0.80;;;;;;;29.02;31.12;100006.88;10389015;28;20153;-65
2022/07/26 15:09:19;;;;;;;2.00;0.70;;;;;;;28.35;32.35;100002.22;10378685;28;20394;-64
2022/07/26 15:14:20;;;;;;;2.10;0.80;;;;;;;28.30;31.96;100000.22;10387385;28;20725;-66
2022/07/26 15:19:22;;;;;;;1.33;0.80;;;;;;;28.40;32.00;99996.81;10384031;28;20967;-67
2022/07/26 15:24:27;;;;;;;2.50;0.90;;;;;;;28.31;32.31;99995.56;10388187;28;20053;-64
2022/07/26 15:29:28;;;;;;;2.10;0.80;;;;;;;28.52;32.44;99999.47;10387775;28;20869;-68
2022/07/26 15:34:31;;;;;;;3.13;0.93;;;;;;;27.99;32.71;100004.31;10390188;28;20273;-66
2022/07/26 15:39:32;;;;;;;;;;;;;;;27.82;32.95;99999.59;10388474;28;20757;-63
2022/07/26 15:44:36;;;;;;;1.95;1.33;;;;;;;27.95;32.76;99995.72;10377520;28;20296;-69
2022/07/26 15:49:38;;;;;;;3.28;0.88;;;;;;;27.79;32.57;99997.34;10366985;28;20052;-72
2022/07/26 15:54:41;;;;;;;3.33;1.55;;;;;;;27.74;33.42;99997.22;10388302;28;21426;-67
2022/07/26 15:59:42;;;;;;;3.53;1.00;;;;;;;27.67;32.84;99993.84;10397966;28;20048;-63
2022/07/26 16:04:44;;;;;;;3.30;0.87;;;;;;;27.86;33.14;99989.84;10400239;28;20048;-67
2022/07/26 16:09:45;;;;;;;1.45;0.90;;;;;;;27.89;32.88;99998.63;10407340;28;20183;-69
2022/07/26 16:14:47;;;;;;;2.30;0.90;;;;;;;27.98;32.92;99991.72;10399264;28;20190;-68
2022/07/26 16:19:49;;;;;;;0.80;0.73;;;;;;;27.84;32.78;99986.50;10405138;28;20736;-69
2022/07/26 16:24:50;;;;;;;1.17;1.07;;;;;;;27.68;32.81;99976.34;10414430;28;20846;-70
2022/07/26 16:29:52;;;;;;;3.17;2.08;;;;;;;27.73;33.11;99973.72;10416667;28;20157;-65
2022/07/26 16:34:53;;;;;;;1.77;1.05;;;;;;;27.80;32.98;99981.75;10415574;28;20783;-68
2022/07/26 16:39:54;;;;;;;2.30;1.60;;;;;;;27.72;33.01;99980.25;10417923;28;20056;-67
2022/07/26 16:44:56;;;;;;;1.48;1.17;;;;;;;27.78;32.89;99982.00;10415418;28;20119;-70
2022/07/26 16:49:57;;;;;;;1.27;1.00;;;;;;;27.82;32.57;99969.50;10417469;28;20040;-69
2022/07/26 16:54:59;;;;;;;1.50;1.10;;;;;;;27.78;32.13;99965.59;10412654;28;20123;-70
2022/07/26 17:00:00;;;;;;;1.77;1.40;;;;;;;27.59;32.41;99966.88;10409948;28;20105;-66
2022/07/26 17:05:03;;;;;;;2.42;1.00;;;;;;;27.70;32.72;99979.69;10415713;28;20125;-66
2022/07/26 17:10:07;;;;;;;4.03;1.08;;;;;;;27.49;33.96;99979.25;10417788;28;20136;-68
2022/07/26 17:15:09;;;;;;;2.20;1.50;;;;;;;27.31;35.00;99987.59;10413407;28;20202;-69
2022/07/26 17:20:11;;;;;;;;;;;;;;;27.11;36.04;99994.28;10413959;28;20114;-69
2022/07/26 17:25:12;;;;;;;3.28;1.30;;;;;;;26.98;36.50;99997.25;10411149;28;20470;-67
2022/07/26 17:30:14;;;;;;;2.25;1.58;;;;;;;26.91;37.11;99989.19;10412726;28;21380;-66
2022/07/26 17:35:15;;;;;;;2.22;1.75;;;;;;;26.85;37.36;99995.59;10411936;28;20152;-65
2022/07/26 17:40:16;;;;;;;2.38;1.80;;;;;;;26.83;37.57;99996.88;10413787;28;20140;-70
2022/07/26 17:45:18;;;;;;;1.67;1.52;;;;;;;26.79;37.85;99991.91;10413355;28;20056;-67
2022/07/26 17:50:20;;;;;;;2.25;1.45;;;;;;;26.74;38.01;99994.53;10411728;28;20124;-64
2022/07/26 17:55:38;;;;;;;3.80;1.95;;;;;;;26.58;38.19;99995.19;10410270;28;20048;-67
2022/07/26 18:00:40;;;;;;;5.20;1.58;;;;;;;26.40;37.91;100007.84;10414054;28;20123;-65
2022/07/26 18:05:42;;;;;;;2.88;1.60;;;;;;;26.13;38.54;100004.69;10412191;28;20059;-63
2022/07/26 18:10:43;;;;;;;2.67;2.13;;;;;;;26.04;38.66;100017.81;10429510;22;20059;-63
2022/07/26 18:15:51;;;;;;;3.92;2.03;;;;;;;25.90;39.19;100013.59;10454776;28;20048;-64
2022/07/26 18:20:53;;;;;;;2.47;1.40;;;;;;;25.74;39.11;100021.34;10463095;28;20056;-66
2022/07/26 18:25:56;;;;;;;5.17;1.53;;;;;;;25.64;38.71;100010.16;10456839;28;20078;-65
2022/07/26 18:30:58;;;;;;;3.17;1.67;;;;;;;25.53;39.48;100014.47;10464012;28;20076;-65
2022/07/26 18:36:00;;;;;;;1.52;1.38;;;;;;;25.53;39.44;100027.28;10446624;28;20582;-63
2022/07/26 18:41:01;;;;;;;1.90;1.50;;;;;;;25.42;39.07;100031.59;10456626;28;20547;-63
2022/07/26 18:46:03;;;;;;;3.75;1.42;;;;;;;25.24;39.94;100026.94;10435366;28;20786;-64
2022/07/26 18:51:06;;;;;;;3.20;1.38;;;;;;;25.13;39.88;100022.22;10452159;28;20145;-67
2022/07/26 18:56:08;;;;;;;2.50;1.70;;;;;;;25.11;39.18;100029.78;10442697;28;20048;-67
2022/07/26 19:01:09;;;;;;;1.95;1.30;;;;;;;25.01;39.21;100031.16;10446303;28;20147;-66
2022/07/26 19:06:11;;;;;;;3.22;1.75;;;;;;;24.94;39.54;100030.38;10440537;28;20197;-67
2022/07/26 19:11:13;;;;;;;1.87;1.50;;;;;;;24.90;39.73;100048.19;10455996;28;20107;-66
2022/07/26 19:16:14;;;;;;;2.45;1.42;;;;;;;24.89;39.92;100043.78;10450109;28;20055;-66
2022/07/26 19:21:16;;;;;;;2.67;1.55;;;;;;;24.92;39.78;100045.25;10464743;28;20131;-66
2022/07/26 19:26:17;;;;;;;1.90;1.30;;;;;;;24.91;39.55;100054.50;10457667;28;20052;-67
2022/07/26 19:31:19;;;;;;;3.58;1.65;;;;;;;24.84;40.10;100063.53;10452826;28;20650;-67
2022/07/26 19:36:21;;;;;;;1.20;1.10;;;;;;;24.83;39.95;100066.47;10449294;28;20048;-67
2022/07/26 19:41:26;;;;;;;3.58;1.38;;;;;;;24.73;40.10;100077.03;10445341;28;20081;-67
2022/07/26 19:46:28;;;;;;;2.88;1.50;;;;;;;24.64;40.08;100074.56;10452331;28;20121;-67
2022/07/26 19:51:29;;;;;;;3.10;1.25;;;;;;;24.54;40.08;100079.63;10435003;28;20553;-66
2022/07/26 19:56:31;;;;;;;3.47;1.20;;;;;;;24.49;40.86;100093.06;10453325;28;20044;-65
2022/07/26 20:01:32;;;;;;;2.55;1.13;;;;;;;24.58;40.51;100097.22;10451182;28;20052;-65
2022/07/26 20:06:34;;;;;;;3.10;1.25;;;;;;;24.56;41.19;100109.34;10437709;28;20362;-66
2022/07/26 20:11:35;;;;;;;3.05;1.52;;;;;;;24.50;40.92;100106.47;10448550;28;20150;-66
2022/07/26 20:16:37;;;;;;;2.17;1.55;;;;;;;24.40;41.45;100116.16;10433844;28;20078;-67
2022/07/26 20:21:38;;;;;;;2.10;1.20;;;;;;;24.37;41.63;100111.16;10446561;28;20819;-65
2022/07/26 20:26:40;;;;;;;2.00;1.42;;;;;;;24.33;41.77;100118.91;10450501;28;20058;-65
2022/07/26 20:31:41;;;;;;;2.83;1.77;;;;;;;24.22;42.56;100114.16;10450533;28;20477;-65
2022/07/26 20:36:43;;;;;;;4.75;1.85;;;;;;;24.14;42.63;100123.38;10447527;28;20623;-66
2022/07/26 20:41:44;;;;;;;2.13;1.23;;;;;;;24.08;43.01;100127.81;10451814;28;20124;-65
2022/07/26 20:46:46;;;;;;;2.55;1.70;;;;;;;24.08;43.37;100135.13;10442363;28;20059;-65
2022/07/26 20:51:47;;;;;;;2.83;1.67;;;;;;;24.02;43.40;100135.97;10432658;28;20308;-65
2022/07/26 20:56:49;;;;;;;2.60;1.45;;;;;;;24.00;45.25;100144.34;10420416;28;20642;-57
2022/07/26 21:01:50;;;;;;;2.38;1.55;;;;;;;23.87;45.23;100149.81;10444019;28;20155;-57
2022/07/26 21:06:51;;;;;;;2.35;1.58;;;;;;;23.81;44.82;100163.19;10454431;28;25276;-57
2022/07/26 21:11:53;;;;;;;2.28;1.60;;;;;;;23.71;45.04;100159.25;10434312;28;20139;-59
2022/07/26 21:16:55;;;;;;;2.28;1.40;;;;;;;23.79;45.15;100164.44;10456868;28;20493;-59
2022/07/26 21:21:56;;;;;;;3.55;1.65;;;;;;;23.77;45.20;100166.56;10441043;28;20358;-58
2022/07/26 21:26:58;;;;;;;2.58;1.70;;;;;;;23.76;45.01;100171.13;10452801;28;20055;-56
2022/07/26 21:31:59;;;;;;;2.72;1.83;;;;;;;23.69;45.39;100158.63;10450466;28;20044;-57
2022/07/26 21:37:03;;;;;;;3.95;1.30;;;;;;;23.79;45.41;100169.88;10452397;28;20085;-56
2022/07/26 21:42:04;;;;;;;2.47;1.40;;;;;;;23.65;46.04;100174.53;10445954;28;21064;-57
2022/07/26 21:47:06;;;;;;;2.35;1.45;;;;;;;23.33;46.92;100176.22;10451145;28;20064;-56
2022/07/26 21:52:07;;;;;;;2.03;1.35;;;;;;;23.46;46.71;100187.06;10453156;28;20044;-56
2022/07/26 21:57:09;;;;;;;2.50;1.40;;;;;;;23.48;46.65;100190.44;10449285;28;20086;-56
2022/07/26 22:02:10;;;;;;;1.40;1.13;;;;;;;23.34;47.14;100183.31;10451319;28;20101;-57
2022/07/26 22:07:12;;;;;;;2.50;0.90;;;;;;;23.39;46.46;100191.66;10451559;28;20072;-55
2022/07/26 22:12:13;;;;;;;3.33;0.98;;;;;;;23.32;46.68;100193.56;10452405;28;20055;-56
2022/07/26 22:17:14;;;;;;;1.45;0.55;;;;;;;23.19;47.35;100187.06;10452654;28;20232;-56
2022/07/26 22:22:16;;;;;;;0.88;0.82;;;;;;;23.16;47.65;100182.06;10450913;28;20135;-56
2022/07/26 22:27:17;;;;;;;1.10;0.57;;;;;;;23.01;48.51;100200.38;10449522;28;20141;-56
2022/07/26 22:32:19;;;;;;;1.70;0.85;;;;;;;22.97;48.56;100199.97;10452315;28;20142;-56
2022/07/26 22:37:20;;;;;;;2.58;0.80;;;;;;;22.86;49.48;100197.84;10454992;28;20163;-56
2022/07/26 22:42:21;;;;;;;1.08;0.50;;;;;;;22.84;49.30;100200.78;10448667;28;20162;-55
2022/07/26 22:47:23;;;;;;;1.13;0.50;;;;;;;22.82;49.15;100186.59;10452740;28;20225;-55
2022/07/26 22:52:24;;;;;;;1.55;0.13;;;;;;;22.73;49.52;100179.69;10453274;28;20822;-55
2022/07/26 22:57:26;;;;;;;5.88;0.47;;;;;;;22.64;49.67;100189.88;10453449;28;20063;-55
2022/07/26 23:02:30;;;;;;;1.88;0.40;;;;;;;22.67;49.62;100191.34;10456760;28;20044;-55
2022/07/26 23:07:32;;;;;;;0.60;0.28;;;;;;;22.74;49.58;100194.91;10453443;28;22374;-55
2022/07/26 23:12:34;;;;;;;1.73;0.10;;;;;;;22.66;49.56;100186.97;10438664;28;20492;-56
2022/07/26 23:17:36;;;;;;;1.30;0.82;;;;;;;22.63;49.70;100179.25;10458863;28;20127;-56
2022/07/26 23:22:40;;;;;;;0.32;0.20;;;;;;;22.51;49.93;100184.41;10457637;28;20560;-55
2022/07/26 23:27:41;;;;;;;0.93;0.17;;;;;;;22.45;49.66;100187.94;10429041;28;20131;-55
2022/07/26 23:32:43;;;;;;;2.30;0.13;;;;;;;22.36;50.34;100181.88;10451299;28;20053;-55